Redding Municipal Airport Redding US
ICAO: KRDD
IATA: RDD
Category: Medium
Scheduled Services: Yes

Elevation: 505 ft
TransAlt. 18000 ft.

Airport Communications:
ATIS:124.1
OAKLAND CNTR:132.2
CTAF:119.8
GND:121.7
RANCHO RDO:108.4
TWR:119.8
UNICOM:122.95

KRDD Zoom In..

If you have problems with the map follow the link
https://www.worldairports.se/pages/airport.php?
ICAO=KRDD

Runways:

(A) RW 12 length 5067 ft width 150 ft
---- / hdg 122

(B) RW 16 length 7003 ft width 150 ft
---- / hdg 162

(C) RW 30 length 5067 ft width 150 ft
---- / hdg 302

(D) RW 34 length 7003 ft width 150 ft
ILS 108.70 / hdg 342

Location; KRDD
Day. 07 / Time. 08.53 Zulu
* Altimeter: 29.85
* Temperature: 13° c. 55.4°f.
* Wind from: 170° Speed 21 kn with Gusts up to 30 kn.
Dewpoint: 11° c.
Visibility: 10 Statute Miles.
Clouds: Overcast 1100 ft.
Conditions: Light Rain.

KRDD 070853Z AUTO 17021G30KT 10SM -RA OVC011 13/11 A2985 RMK AO2 PK WND 18034/0811 SLP105 P0011 60029 T01280111 58012


Wind From 170°
Speed 21 kn.

 
 
jpsmedia worldairports.se 2019   terms of use